sensor_id;sensor_type;location;lat;lon;timestamp;P1;durP1;ratioP1;P2;durP2;ratioP2
10511;SDS011;5304;48.604;2.096;2022-11-20T00:02:15;9.23;;;5.27;;
10511;SDS011;5304;48.604;2.096;2022-11-20T00:04:59;9.03;;;4.80;;
10511;SDS011;5304;48.604;2.096;2022-11-20T00:07:44;9.13;;;4.80;;
10511;SDS011;5304;48.604;2.096;2022-11-20T00:10:28;6.77;;;4.40;;
10511;SDS011;5304;48.604;2.096;2022-11-20T00:13:13;12.33;;;5.50;;
10511;SDS011;5304;48.604;2.096;2022-11-20T00:15:58;8.07;;;5.03;;
10511;SDS011;5304;48.604;2.096;2022-11-20T00:18:44;11.90;;;5.30;;
10511;SDS011;5304;48.604;2.096;2022-11-20T00:21:29;10.27;;;5.33;;
10511;SDS011;5304;48.604;2.096;2022-11-20T00:24:14;8.40;;;5.00;;
10511;SDS011;5304;48.604;2.096;2022-11-20T00:26:58;8.03;;;5.20;;
10511;SDS011;5304;48.604;2.096;2022-11-20T00:29:42;9.07;;;5.33;;
10511;SDS011;5304;48.604;2.096;2022-11-20T00:32:26;8.27;;;4.93;;
10511;SDS011;5304;48.604;2.096;2022-11-20T00:35:11;9.63;;;5.03;;
10511;SDS011;5304;48.604;2.096;2022-11-20T00:37:55;8.27;;;5.50;;
10511;SDS011;5304;48.604;2.096;2022-11-20T00:40:40;9.70;;;5.20;;
10511;SDS011;5304;48.604;2.096;2022-11-20T00:43:26;9.10;;;5.43;;
10511;SDS011;5304;48.604;2.096;2022-11-20T00:46:15;8.87;;;4.70;;
10511;SDS011;5304;48.604;2.096;2022-11-20T00:49:01;7.97;;;4.20;;
10511;SDS011;5304;48.604;2.096;2022-11-20T00:51:45;6.43;;;3.63;;
10511;SDS011;5304;48.604;2.096;2022-11-20T00:54:30;13.63;;;4.07;;
10511;SDS011;5304;48.604;2.096;2022-11-20T00:57:14;6.00;;;3.53;;
10511;SDS011;5304;48.604;2.096;2022-11-20T00:59:59;7.07;;;3.53;;
10511;SDS011;5304;48.604;2.096;2022-11-20T01:02:43;9.10;;;3.93;;
10511;SDS011;5304;48.604;2.096;2022-11-20T01:05:28;7.23;;;4.10;;
10511;SDS011;5304;48.604;2.096;2022-11-20T01:08:12;5.50;;;3.60;;
10511;SDS011;5304;48.604;2.096;2022-11-20T01:11:04;11.17;;;4.13;;
10511;SDS011;5304;48.604;2.096;2022-11-20T01:13:52;6.73;;;3.87;;
10511;SDS011;5304;48.604;2.096;2022-11-20T01:16:39;13.87;;;4.17;;
10511;SDS011;5304;48.604;2.096;2022-11-20T01:19:25;8.23;;;3.63;;
10511;SDS011;5304;48.604;2.096;2022-11-20T01:22:09;5.63;;;3.47;;
10511;SDS011;5304;48.604;2.096;2022-11-20T01:24:54;5.90;;;3.87;;
10511;SDS011;5304;48.604;2.096;2022-11-20T01:27:38;5.00;;;3.37;;
10511;SDS011;5304;48.604;2.096;2022-11-20T01:30:23;4.77;;;3.80;;
10511;SDS011;5304;48.604;2.096;2022-11-20T01:33:07;5.47;;;3.53;;
10511;SDS011;5304;48.604;2.096;2022-11-20T01:35:52;6.03;;;3.97;;
10511;SDS011;5304;48.604;2.096;2022-11-20T01:38:37;9.47;;;4.60;;
10511;SDS011;5304;48.604;2.096;2022-11-20T01:41:23;10.40;;;4.50;;
10511;SDS011;5304;48.604;2.096;2022-11-20T01:47:36;10.37;;;6.10;;
10511;SDS011;5304;48.604;2.096;2022-11-20T01:50:24;15.70;;;6.97;;
10511;SDS011;5304;48.604;2.096;2022-11-20T01:53:13;12.60;;;5.93;;
10511;SDS011;5304;48.604;2.096;2022-11-20T01:56:01;8.73;;;5.77;;
10511;SDS011;5304;48.604;2.096;2022-11-20T01:58:51;14.17;;;6.70;;
10511;SDS011;5304;48.604;2.096;2022-11-20T02:01:40;9.97;;;5.77;;
10511;SDS011;5304;48.604;2.096;2022-11-20T02:04:24;9.90;;;5.47;;
10511;SDS011;5304;48.604;2.096;2022-11-20T02:07:09;10.33;;;5.23;;
10511;SDS011;5304;48.604;2.096;2022-11-20T02:09:55;7.97;;;5.23;;
10511;SDS011;5304;48.604;2.096;2022-11-20T02:12:40;10.90;;;5.40;;
10511;SDS011;5304;48.604;2.096;2022-11-20T02:15:43;6.67;;;4.17;;
10511;SDS011;5304;48.604;2.096;2022-11-20T02:18:28;8.37;;;5.17;;
10511;SDS011;5304;48.604;2.096;2022-11-20T02:24:18;11.23;;;6.07;;
10511;SDS011;5304;48.604;2.096;2022-11-20T02:27:06;13.27;;;5.53;;
10511;SDS011;5304;48.604;2.096;2022-11-20T02:30:01;12.10;;;7.40;;
10511;SDS011;5304;48.604;2.096;2022-11-20T02:32:47;12.73;;;6.93;;
10511;SDS011;5304;48.604;2.096;2022-11-20T02:38:16;10.23;;;6.20;;
10511;SDS011;5304;48.604;2.096;2022-11-20T02:41:01;11.83;;;6.33;;
10511;SDS011;5304;48.604;2.096;2022-11-20T02:43:45;10.63;;;5.53;;
10511;SDS011;5304;48.604;2.096;2022-11-20T02:46:29;9.03;;;6.30;;
10511;SDS011;5304;48.604;2.096;2022-11-20T02:49:14;10.17;;;5.93;;
10511;SDS011;5304;48.604;2.096;2022-11-20T02:52:00;8.87;;;6.40;;
10511;SDS011;5304;48.604;2.096;2022-11-20T02:54:45;7.53;;;5.23;;
10511;SDS011;5304;48.604;2.096;2022-11-20T02:57:30;9.33;;;5.30;;
10511;SDS011;5304;48.604;2.096;2022-11-20T03:00:14;7.77;;;4.63;;
10511;SDS011;5304;48.604;2.096;2022-11-20T03:02:59;13.80;;;4.83;;
10511;SDS011;5304;48.604;2.096;2022-11-20T03:05:43;7.47;;;4.83;;
10511;SDS011;5304;48.604;2.096;2022-11-20T03:08:28;6.83;;;4.27;;
10511;SDS011;5304;48.604;2.096;2022-11-20T03:11:12;6.83;;;4.27;;
10511;SDS011;5304;48.604;2.096;2022-11-20T03:13:57;8.20;;;4.37;;
10511;SDS011;5304;48.604;2.096;2022-11-20T03:16:41;6.10;;;3.50;;
10511;SDS011;5304;48.604;2.096;2022-11-20T03:19:26;6.33;;;4.00;;
10511;SDS011;5304;48.604;2.096;2022-11-20T03:22:10;8.87;;;3.70;;
10511;SDS011;5304;48.604;2.096;2022-11-20T03:24:55;9.17;;;4.23;;
10511;SDS011;5304;48.604;2.096;2022-11-20T03:27:40;5.43;;;3.80;;
10511;SDS011;5304;48.604;2.096;2022-11-20T03:30:24;8.70;;;3.97;;
10511;SDS011;5304;48.604;2.096;2022-11-20T03:33:09;7.37;;;4.00;;
10511;SDS011;5304;48.604;2.096;2022-11-20T03:35:53;8.33;;;4.23;;
10511;SDS011;5304;48.604;2.096;2022-11-20T03:38:37;8.87;;;4.37;;
10511;SDS011;5304;48.604;2.096;2022-11-20T03:41:26;9.90;;;5.17;;
10511;SDS011;5304;48.604;2.096;2022-11-20T03:44:12;11.60;;;6.73;;
10511;SDS011;5304;48.604;2.096;2022-11-20T03:46:57;12.50;;;7.00;;
10511;SDS011;5304;48.604;2.096;2022-11-20T03:49:41;14.73;;;8.83;;
10511;SDS011;5304;48.604;2.096;2022-11-20T03:52:26;18.07;;;9.23;;
10511;SDS011;5304;48.604;2.096;2022-11-20T03:55:10;11.27;;;7.77;;
10511;SDS011;5304;48.604;2.096;2022-11-20T03:57:54;16.17;;;10.27;;
10511;SDS011;5304;48.604;2.096;2022-11-20T04:00:39;9.87;;;5.87;;
10511;SDS011;5304;48.604;2.096;2022-11-20T04:03:25;11.10;;;5.87;;
10511;SDS011;5304;48.604;2.096;2022-11-20T04:06:11;12.40;;;6.67;;
10511;SDS011;5304;48.604;2.096;2022-11-20T04:09:01;12.07;;;7.43;;
10511;SDS011;5304;48.604;2.096;2022-11-20T04:11:46;11.53;;;6.93;;
10511;SDS011;5304;48.604;2.096;2022-11-20T04:14:31;16.73;;;7.57;;
10511;SDS011;5304;48.604;2.096;2022-11-20T04:17:15;16.07;;;7.20;;
10511;SDS011;5304;48.604;2.096;2022-11-20T04:20:00;12.80;;;7.30;;
10511;SDS011;5304;48.604;2.096;2022-11-20T04:22:44;15.60;;;7.57;;
10511;SDS011;5304;48.604;2.096;2022-11-20T04:25:29;8.60;;;5.87;;
10511;SDS011;5304;48.604;2.096;2022-11-20T04:28:13;12.60;;;5.83;;
10511;SDS011;5304;48.604;2.096;2022-11-20T04:31:04;8.73;;;5.13;;
10511;SDS011;5304;48.604;2.096;2022-11-20T04:33:53;14.53;;;5.40;;
10511;SDS011;5304;48.604;2.096;2022-11-20T04:36:37;9.20;;;5.37;;
10511;SDS011;5304;48.604;2.096;2022-11-20T04:39:22;9.53;;;5.90;;
10511;SDS011;5304;48.604;2.096;2022-11-20T04:42:08;7.70;;;4.63;;
10511;SDS011;5304;48.604;2.096;2022-11-20T04:45:12;7.00;;;5.03;;
10511;SDS011;5304;48.604;2.096;2022-11-20T04:47:56;8.07;;;4.97;;
10511;SDS011;5304;48.604;2.096;2022-11-20T04:50:41;7.33;;;4.50;;
10511;SDS011;5304;48.604;2.096;2022-11-20T04:53:25;8.23;;;4.70;;
10511;SDS011;5304;48.604;2.096;2022-11-20T04:56:11;7.87;;;5.13;;
10511;SDS011;5304;48.604;2.096;2022-11-20T04:58:59;10.53;;;5.23;;
10511;SDS011;5304;48.604;2.096;2022-11-20T05:01:44;6.97;;;4.77;;
10511;SDS011;5304;48.604;2.096;2022-11-20T05:04:28;9.93;;;6.13;;
10511;SDS011;5304;48.604;2.096;2022-11-20T05:07:13;7.97;;;5.10;;
10511;SDS011;5304;48.604;2.096;2022-11-20T05:09:58;6.37;;;4.43;;
10511;SDS011;5304;48.604;2.096;2022-11-20T05:12:42;7.43;;;5.00;;
10511;SDS011;5304;48.604;2.096;2022-11-20T05:15:26;5.70;;;4.17;;
10511;SDS011;5304;48.604;2.096;2022-11-20T05:18:11;5.83;;;4.20;;
10511;SDS011;5304;48.604;2.096;2022-11-20T05:20:55;6.73;;;4.10;;
10511;SDS011;5304;48.604;2.096;2022-11-20T05:23:41;7.30;;;4.30;;
10511;SDS011;5304;48.604;2.096;2022-11-20T05:26:26;7.07;;;4.70;;
10511;SDS011;5304;48.604;2.096;2022-11-20T05:29:11;8.17;;;3.93;;
10511;SDS011;5304;48.604;2.096;2022-11-20T05:31:55;8.73;;;4.83;;
10511;SDS011;5304;48.604;2.096;2022-11-20T05:34:40;8.40;;;4.50;;
10511;SDS011;5304;48.604;2.096;2022-11-20T05:37:24;12.07;;;4.27;;
10511;SDS011;5304;48.604;2.096;2022-11-20T05:40:09;8.47;;;4.37;;
10511;SDS011;5304;48.604;2.096;2022-11-20T05:42:54;9.13;;;4.57;;
10511;SDS011;5304;48.604;2.096;2022-11-20T05:45:38;8.20;;;3.93;;
10511;SDS011;5304;48.604;2.096;2022-11-20T05:48:22;8.30;;;4.83;;
10511;SDS011;5304;48.604;2.096;2022-11-20T05:51:08;7.43;;;4.40;;
10511;SDS011;5304;48.604;2.096;2022-11-20T05:53:57;8.13;;;4.20;;
10511;SDS011;5304;48.604;2.096;2022-11-20T05:56:42;8.70;;;4.60;;
10511;SDS011;5304;48.604;2.096;2022-11-20T05:59:26;4.97;;;3.97;;
10511;SDS011;5304;48.604;2.096;2022-11-20T06:02:11;5.47;;;4.17;;
10511;SDS011;5304;48.604;2.096;2022-11-20T06:04:55;7.47;;;4.07;;
10511;SDS011;5304;48.604;2.096;2022-11-20T06:07:40;8.37;;;3.90;;
10511;SDS011;5304;48.604;2.096;2022-11-20T06:10:24;10.77;;;4.23;;
10511;SDS011;5304;48.604;2.096;2022-11-20T06:13:08;9.50;;;4.40;;
10511;SDS011;5304;48.604;2.096;2022-11-20T06:15:53;6.07;;;4.00;;
10511;SDS011;5304;48.604;2.096;2022-11-20T06:18:38;6.40;;;4.57;;
10511;SDS011;5304;48.604;2.096;2022-11-20T06:21:23;7.70;;;4.83;;
10511;SDS011;5304;48.604;2.096;2022-11-20T06:24:08;9.77;;;4.43;;
10511;SDS011;5304;48.604;2.096;2022-11-20T06:26:54;5.30;;;3.87;;
10511;SDS011;5304;48.604;2.096;2022-11-20T06:29:38;8.97;;;4.30;;
10511;SDS011;5304;48.604;2.096;2022-11-20T06:32:23;6.87;;;4.27;;
10511;SDS011;5304;48.604;2.096;2022-11-20T06:35:07;7.33;;;4.10;;
10511;SDS011;5304;48.604;2.096;2022-11-20T06:37:52;5.77;;;3.93;;
10511;SDS011;5304;48.604;2.096;2022-11-20T06:40:39;11.97;;;4.23;;
10511;SDS011;5304;48.604;2.096;2022-11-20T06:43:28;8.67;;;4.77;;
10511;SDS011;5304;48.604;2.096;2022-11-20T06:46:14;8.43;;;4.17;;
10511;SDS011;5304;48.604;2.096;2022-11-20T06:49:03;4.80;;;3.90;;
10511;SDS011;5304;48.604;2.096;2022-11-20T06:51:47;6.83;;;3.50;;
10511;SDS011;5304;48.604;2.096;2022-11-20T06:54:32;7.77;;;3.50;;
10511;SDS011;5304;48.604;2.096;2022-11-20T06:57:16;6.13;;;3.90;;
10511;SDS011;5304;48.604;2.096;2022-11-20T07:00:00;9.83;;;3.80;;
10511;SDS011;5304;48.604;2.096;2022-11-20T07:02:45;5.73;;;3.70;;
10511;SDS011;5304;48.604;2.096;2022-11-20T07:05:29;7.17;;;4.10;;
10511;SDS011;5304;48.604;2.096;2022-11-20T07:08:14;10.43;;;4.53;;
10511;SDS011;5304;48.604;2.096;2022-11-20T07:10:59;9.37;;;4.60;;
10511;SDS011;5304;48.604;2.096;2022-11-20T07:13:44;9.07;;;4.40;;
10511;SDS011;5304;48.604;2.096;2022-11-20T07:16:29;8.73;;;4.13;;
10511;SDS011;5304;48.604;2.096;2022-11-20T07:19:14;5.33;;;3.93;;
10511;SDS011;5304;48.604;2.096;2022-11-20T07:21:58;5.67;;;4.20;;
10511;SDS011;5304;48.604;2.096;2022-11-20T07:24:43;8.50;;;4.87;;
10511;SDS011;5304;48.604;2.096;2022-11-20T07:27:27;9.00;;;4.77;;
10511;SDS011;5304;48.604;2.096;2022-11-20T07:30:13;8.60;;;4.73;;
10511;SDS011;5304;48.604;2.096;2022-11-20T07:32:58;7.47;;;3.90;;
10511;SDS011;5304;48.604;2.096;2022-11-20T07:35:42;8.90;;;3.90;;
10511;SDS011;5304;48.604;2.096;2022-11-20T07:38:27;7.00;;;3.87;;
10511;SDS011;5304;48.604;2.096;2022-11-20T07:41:11;5.93;;;3.50;;
10511;SDS011;5304;48.604;2.096;2022-11-20T07:43:56;9.97;;;4.13;;
10511;SDS011;5304;48.604;2.096;2022-11-20T07:46:40;11.20;;;4.40;;
10511;SDS011;5304;48.604;2.096;2022-11-20T07:49:25;6.67;;;4.20;;
10511;SDS011;5304;48.604;2.096;2022-11-20T07:52:09;8.73;;;4.53;;
10511;SDS011;5304;48.604;2.096;2022-11-20T07:54:54;8.23;;;4.43;;
10511;SDS011;5304;48.604;2.096;2022-11-20T07:57:38;6.03;;;4.73;;
10511;SDS011;5304;48.604;2.096;2022-11-20T08:00:23;10.03;;;5.20;;
10511;SDS011;5304;48.604;2.096;2022-11-20T08:03:09;12.03;;;5.37;;
10511;SDS011;5304;48.604;2.096;2022-11-20T08:05:54;7.20;;;5.17;;
10511;SDS011;5304;48.604;2.096;2022-11-20T08:08:42;7.50;;;5.40;;
10511;SDS011;5304;48.604;2.096;2022-11-20T08:11:27;7.70;;;4.90;;
10511;SDS011;5304;48.604;2.096;2022-11-20T08:14:30;7.53;;;4.90;;
10511;SDS011;5304;48.604;2.096;2022-11-20T08:17:14;11.93;;;4.90;;
10511;SDS011;5304;48.604;2.096;2022-11-20T08:19:58;11.47;;;5.63;;
10511;SDS011;5304;48.604;2.096;2022-11-20T08:22:43;9.07;;;4.73;;
10511;SDS011;5304;48.604;2.096;2022-11-20T08:25:30;9.17;;;4.47;;
10511;SDS011;5304;48.604;2.096;2022-11-20T08:28:16;8.97;;;4.63;;
10511;SDS011;5304;48.604;2.096;2022-11-20T08:31:01;11.30;;;6.00;;
10511;SDS011;5304;48.604;2.096;2022-11-20T08:33:46;13.33;;;5.73;;
10511;SDS011;5304;48.604;2.096;2022-11-20T08:36:32;11.90;;;5.93;;
10511;SDS011;5304;48.604;2.096;2022-11-20T08:39:18;8.37;;;4.63;;
10511;SDS011;5304;48.604;2.096;2022-11-20T08:42:06;11.77;;;4.47;;
10511;SDS011;5304;48.604;2.096;2022-11-20T08:44:51;9.77;;;4.97;;
10511;SDS011;5304;48.604;2.096;2022-11-20T08:47:35;8.90;;;4.23;;
10511;SDS011;5304;48.604;2.096;2022-11-20T08:50:20;5.90;;;3.50;;
10511;SDS011;5304;48.604;2.096;2022-11-20T08:53:04;8.57;;;4.20;;
10511;SDS011;5304;48.604;2.096;2022-11-20T08:55:49;11.17;;;4.07;;
10511;SDS011;5304;48.604;2.096;2022-11-20T08:58:34;6.20;;;3.23;;
10511;SDS011;5304;48.604;2.096;2022-11-20T09:01:19;5.97;;;3.47;;
10511;SDS011;5304;48.604;2.096;2022-11-20T09:04:04;10.00;;;3.83;;
10511;SDS011;5304;48.604;2.096;2022-11-20T09:06:49;13.97;;;4.50;;
10511;SDS011;5304;48.604;2.096;2022-11-20T09:09:36;6.53;;;3.37;;
10511;SDS011;5304;48.604;2.096;2022-11-20T09:12:21;11.13;;;4.00;;
10511;SDS011;5304;48.604;2.096;2022-11-20T09:15:05;5.60;;;3.57;;
10511;SDS011;5304;48.604;2.096;2022-11-20T09:17:56;8.60;;;3.83;;
10511;SDS011;5304;48.604;2.096;2022-11-20T09:20:43;8.97;;;4.23;;
10511;SDS011;5304;48.604;2.096;2022-11-20T09:23:30;6.90;;;4.33;;
10511;SDS011;5304;48.604;2.096;2022-11-20T09:26:17;5.17;;;3.57;;
10511;SDS011;5304;48.604;2.096;2022-11-20T09:29:01;7.97;;;4.57;;
10511;SDS011;5304;48.604;2.096;2022-11-20T09:31:45;6.47;;;3.57;;
10511;SDS011;5304;48.604;2.096;2022-11-20T09:34:30;8.50;;;3.77;;
10511;SDS011;5304;48.604;2.096;2022-11-20T09:37:14;10.50;;;4.00;;
10511;SDS011;5304;48.604;2.096;2022-11-20T09:39:58;8.17;;;3.83;;
10511;SDS011;5304;48.604;2.096;2022-11-20T09:42:45;4.87;;;3.57;;
10511;SDS011;5304;48.604;2.096;2022-11-20T09:46:02;8.90;;;3.87;;
10511;SDS011;5304;48.604;2.096;2022-11-20T09:55:06;8.13;;;3.93;;
10511;SDS011;5304;48.604;2.096;2022-11-20T09:57:54;8.10;;;3.20;;
10511;SDS011;5304;48.604;2.096;2022-11-20T10:00:41;6.53;;;4.17;;
10511;SDS011;5304;48.604;2.096;2022-11-20T10:03:30;6.97;;;3.83;;
10511;SDS011;5304;48.604;2.096;2022-11-20T10:06:44;9.03;;;3.03;;
10511;SDS011;5304;48.604;2.096;2022-11-20T10:09:49;6.90;;;3.63;;
10511;SDS011;5304;48.604;2.096;2022-11-20T10:30:18;6.67;;;3.33;;
10511;SDS011;5304;48.604;2.096;2022-11-20T10:39:01;7.57;;;3.50;;
10511;SDS011;5304;48.604;2.096;2022-11-20T10:41:54;11.93;;;3.53;;
10511;SDS011;5304;48.604;2.096;2022-11-20T10:44:40;5.80;;;3.60;;
10511;SDS011;5304;48.604;2.096;2022-11-20T10:47:46;7.07;;;2.90;;
10511;SDS011;5304;48.604;2.096;2022-11-20T10:50:30;5.20;;;2.97;;
10511;SDS011;5304;48.604;2.096;2022-11-20T10:53:23;4.90;;;3.17;;
10511;SDS011;5304;48.604;2.096;2022-11-20T11:02:34;6.27;;;2.80;;
10511;SDS011;5304;48.604;2.096;2022-11-20T11:08:40;5.40;;;3.40;;
10511;SDS011;5304;48.604;2.096;2022-11-20T11:11:32;4.10;;;3.50;;
10511;SDS011;5304;48.604;2.096;2022-11-20T11:14:17;8.67;;;2.97;;
10511;SDS011;5304;48.604;2.096;2022-11-20T11:17:02;6.20;;;3.00;;
10511;SDS011;5304;48.604;2.096;2022-11-20T11:19:56;4.20;;;3.10;;
10511;SDS011;5304;48.604;2.096;2022-11-20T11:23:00;5.60;;;3.07;;
10511;SDS011;5304;48.604;2.096;2022-11-20T11:25:55;5.47;;;2.63;;
10511;SDS011;5304;48.604;2.096;2022-11-20T11:28:42;4.53;;;2.77;;
10511;SDS011;5304;48.604;2.096;2022-11-20T11:31:43;4.33;;;2.20;;
10511;SDS011;5304;48.604;2.096;2022-11-20T11:34:27;4.03;;;2.20;;
10511;SDS011;5304;48.604;2.096;2022-11-20T11:37:17;2.63;;;2.20;;
10511;SDS011;5304;48.604;2.096;2022-11-20T11:40:05;3.07;;;2.60;;
10511;SDS011;5304;48.604;2.096;2022-11-20T11:42:58;6.00;;;2.90;;
10511;SDS011;5304;48.604;2.096;2022-11-20T11:45:51;4.60;;;2.63;;
10511;SDS011;5304;48.604;2.096;2022-11-20T11:48:37;4.53;;;2.67;;
10511;SDS011;5304;48.604;2.096;2022-11-20T11:51:22;3.23;;;2.30;;
10511;SDS011;5304;48.604;2.096;2022-11-20T11:54:14;4.63;;;2.40;;
10511;SDS011;5304;48.604;2.096;2022-11-20T12:00:37;3.03;;;2.23;;
10511;SDS011;5304;48.604;2.096;2022-11-20T12:03:30;6.63;;;2.90;;
10511;SDS011;5304;48.604;2.096;2022-11-20T12:06:22;4.73;;;2.93;;
10511;SDS011;5304;48.604;2.096;2022-11-20T12:09:09;9.13;;;3.00;;
10511;SDS011;5304;48.604;2.096;2022-11-20T12:11:56;8.50;;;4.70;;
10511;SDS011;5304;48.604;2.096;2022-11-20T12:14:48;5.83;;;3.53;;
10511;SDS011;5304;48.604;2.096;2022-11-20T12:17:37;4.70;;;3.70;;
10511;SDS011;5304;48.604;2.096;2022-11-20T12:20:22;7.67;;;3.57;;
10511;SDS011;5304;48.604;2.096;2022-11-20T12:23:24;6.40;;;3.40;;
10511;SDS011;5304;48.604;2.096;2022-11-20T12:26:32;6.10;;;3.03;;
10511;SDS011;5304;48.604;2.096;2022-11-20T12:33:01;4.83;;;3.27;;
10511;SDS011;5304;48.604;2.096;2022-11-20T12:48:29;5.63;;;3.10;;
10511;SDS011;5304;48.604;2.096;2022-11-20T12:54:39;5.27;;;3.53;;
10511;SDS011;5304;48.604;2.096;2022-11-20T12:57:29;6.60;;;4.13;;
10511;SDS011;5304;48.604;2.096;2022-11-20T13:00:22;5.30;;;3.73;;
10511;SDS011;5304;48.604;2.096;2022-11-20T13:08:41;7.47;;;3.60;;
10511;SDS011;5304;48.604;2.096;2022-11-20T13:20:31;9.37;;;4.50;;
10511;SDS011;5304;48.604;2.096;2022-11-20T13:23:25;10.00;;;4.93;;
10511;SDS011;5304;48.604;2.096;2022-11-20T13:26:19;7.90;;;3.80;;
10511;SDS011;5304;48.604;2.096;2022-11-20T13:31:49;6.00;;;3.80;;
10511;SDS011;5304;48.604;2.096;2022-11-20T13:34:33;5.97;;;3.90;;
10511;SDS011;5304;48.604;2.096;2022-11-20T13:37:30;5.03;;;4.03;;
10511;SDS011;5304;48.604;2.096;2022-11-20T13:40:20;7.00;;;4.33;;
10511;SDS011;5304;48.604;2.096;2022-11-20T13:43:26;6.83;;;4.67;;
10511;SDS011;5304;48.604;2.096;2022-11-20T13:46:37;7.53;;;3.70;;
10511;SDS011;5304;48.604;2.096;2022-11-20T13:49:37;9.73;;;4.60;;
10511;SDS011;5304;48.604;2.096;2022-11-20T13:55:42;5.40;;;3.77;;
10511;SDS011;5304;48.604;2.096;2022-11-20T14:02:01;7.90;;;3.90;;
10511;SDS011;5304;48.604;2.096;2022-11-20T14:04:47;11.67;;;4.60;;
10511;SDS011;5304;48.604;2.096;2022-11-20T14:07:35;8.23;;;4.37;;
10511;SDS011;5304;48.604;2.096;2022-11-20T14:10:26;8.70;;;4.00;;
10511;SDS011;5304;48.604;2.096;2022-11-20T14:13:18;8.60;;;4.00;;
10511;SDS011;5304;48.604;2.096;2022-11-20T14:16:04;9.07;;;4.67;;
10511;SDS011;5304;48.604;2.096;2022-11-20T14:18:48;6.83;;;3.47;;
10511;SDS011;5304;48.604;2.096;2022-11-20T14:21:33;6.50;;;3.77;;
10511;SDS011;5304;48.604;2.096;2022-11-20T14:24:21;6.90;;;3.23;;
10511;SDS011;5304;48.604;2.096;2022-11-20T14:27:14;7.60;;;3.43;;
10511;SDS011;5304;48.604;2.096;2022-11-20T14:30:02;9.83;;;3.67;;
10511;SDS011;5304;48.604;2.096;2022-11-20T14:32:48;12.27;;;3.93;;
10511;SDS011;5304;48.604;2.096;2022-11-20T14:35:44;10.23;;;3.40;;
10511;SDS011;5304;48.604;2.096;2022-11-20T14:38:33;9.80;;;3.07;;
10511;SDS011;5304;48.604;2.096;2022-11-20T14:41:18;9.10;;;3.53;;
10511;SDS011;5304;48.604;2.096;2022-11-20T14:44:05;7.67;;;4.23;;
10511;SDS011;5304;48.604;2.096;2022-11-20T14:46:52;6.40;;;2.90;;
10511;SDS011;5304;48.604;2.096;2022-11-20T14:49:38;9.30;;;2.73;;
10511;SDS011;5304;48.604;2.096;2022-11-20T14:52:25;7.17;;;2.50;;
10511;SDS011;5304;48.604;2.096;2022-11-20T14:55:13;13.53;;;2.60;;
10511;SDS011;5304;48.604;2.096;2022-11-20T14:58:21;13.53;;;2.90;;
10511;SDS011;5304;48.604;2.096;2022-11-20T15:01:07;8.20;;;2.57;;
10511;SDS011;5304;48.604;2.096;2022-11-20T15:04:07;7.33;;;2.30;;
10511;SDS011;5304;48.604;2.096;2022-11-20T15:06:55;9.53;;;2.37;;
10511;SDS011;5304;48.604;2.096;2022-11-20T15:09:42;7.53;;;2.70;;
10511;SDS011;5304;48.604;2.096;2022-11-20T15:12:26;16.10;;;3.37;;
10511;SDS011;5304;48.604;2.096;2022-11-20T15:15:11;11.87;;;3.30;;
10511;SDS011;5304;48.604;2.096;2022-11-20T15:17:58;13.97;;;4.27;;
10511;SDS011;5304;48.604;2.096;2022-11-20T15:20:43;14.30;;;5.60;;
10511;SDS011;5304;48.604;2.096;2022-11-20T15:23:27;10.27;;;5.67;;
10511;SDS011;5304;48.604;2.096;2022-11-20T15:26:13;11.17;;;3.93;;
10511;SDS011;5304;48.604;2.096;2022-11-20T15:29:10;12.17;;;3.80;;
10511;SDS011;5304;48.604;2.096;2022-11-20T15:31:57;9.60;;;3.13;;
10511;SDS011;5304;48.604;2.096;2022-11-20T15:34:41;8.17;;;2.77;;
10511;SDS011;5304;48.604;2.096;2022-11-20T15:37:26;7.50;;;3.10;;
10511;SDS011;5304;48.604;2.096;2022-11-20T15:40:10;16.77;;;3.60;;
10511;SDS011;5304;48.604;2.096;2022-11-20T15:42:55;10.30;;;4.37;;
10511;SDS011;5304;48.604;2.096;2022-11-20T15:46:01;8.63;;;4.73;;
10511;SDS011;5304;48.604;2.096;2022-11-20T15:48:58;12.00;;;5.50;;
10511;SDS011;5304;48.604;2.096;2022-11-20T15:51:44;9.43;;;5.20;;
10511;SDS011;5304;48.604;2.096;2022-11-20T15:54:32;12.00;;;5.07;;
10511;SDS011;5304;48.604;2.096;2022-11-20T15:57:16;10.93;;;6.10;;
10511;SDS011;5304;48.604;2.096;2022-11-20T16:00:01;18.43;;;8.33;;
10511;SDS011;5304;48.604;2.096;2022-11-20T16:02:45;20.83;;;9.23;;
10511;SDS011;5304;48.604;2.096;2022-11-20T16:05:30;21.07;;;7.43;;
10511;SDS011;5304;48.604;2.096;2022-11-20T16:08:15;15.00;;;7.67;;
10511;SDS011;5304;48.604;2.096;2022-11-20T16:11:00;9.67;;;6.40;;
10511;SDS011;5304;48.604;2.096;2022-11-20T16:13:45;8.30;;;5.80;;
10511;SDS011;5304;48.604;2.096;2022-11-20T16:16:48;11.87;;;5.43;;
10511;SDS011;5304;48.604;2.096;2022-11-20T16:19:33;13.83;;;5.43;;
10511;SDS011;5304;48.604;2.096;2022-11-20T16:22:17;12.27;;;7.20;;
10511;SDS011;5304;48.604;2.096;2022-11-20T16:25:02;13.23;;;5.80;;
10511;SDS011;5304;48.604;2.096;2022-11-20T16:27:47;15.53;;;5.27;;
10511;SDS011;5304;48.604;2.096;2022-11-20T16:30:32;11.03;;;4.67;;
10511;SDS011;5304;48.604;2.096;2022-11-20T16:33:17;9.17;;;4.77;;
10511;SDS011;5304;48.604;2.096;2022-11-20T16:36:08;8.13;;;5.43;;
10511;SDS011;5304;48.604;2.096;2022-11-20T16:38:57;11.40;;;5.33;;
10511;SDS011;5304;48.604;2.096;2022-11-20T16:41:43;9.53;;;5.20;;
10511;SDS011;5304;48.604;2.096;2022-11-20T16:44:28;12.70;;;5.43;;
10511;SDS011;5304;48.604;2.096;2022-11-20T16:47:12;9.27;;;5.37;;
10511;SDS011;5304;48.604;2.096;2022-11-20T16:49:57;10.67;;;4.70;;
10511;SDS011;5304;48.604;2.096;2022-11-20T16:52:41;12.67;;;4.83;;
10511;SDS011;5304;48.604;2.096;2022-11-20T16:55:26;8.53;;;5.23;;
10511;SDS011;5304;48.604;2.096;2022-11-20T16:58:10;10.17;;;4.97;;
10511;SDS011;5304;48.604;2.096;2022-11-20T17:00:55;9.60;;;4.80;;
10511;SDS011;5304;48.604;2.096;2022-11-20T17:03:40;11.10;;;5.30;;
10511;SDS011;5304;48.604;2.096;2022-11-20T17:06:27;10.60;;;5.50;;
10511;SDS011;5304;48.604;2.096;2022-11-20T17:09:13;15.73;;;8.13;;
10511;SDS011;5304;48.604;2.096;2022-11-20T17:11:57;20.60;;;9.63;;
10511;SDS011;5304;48.604;2.096;2022-11-20T17:14:41;16.47;;;8.00;;
10511;SDS011;5304;48.604;2.096;2022-11-20T17:17:26;14.47;;;7.30;;
10511;SDS011;5304;48.604;2.096;2022-11-20T17:20:10;13.57;;;7.27;;
10511;SDS011;5304;48.604;2.096;2022-11-20T17:22:55;15.40;;;7.07;;
10511;SDS011;5304;48.604;2.096;2022-11-20T17:25:39;15.87;;;8.73;;
10511;SDS011;5304;48.604;2.096;2022-11-20T17:28:23;15.97;;;9.20;;
10511;SDS011;5304;48.604;2.096;2022-11-20T17:31:09;20.67;;;9.90;;
10511;SDS011;5304;48.604;2.096;2022-11-20T17:33:55;19.37;;;10.87;;
10511;SDS011;5304;48.604;2.096;2022-11-20T17:36:39;16.47;;;10.37;;
10511;SDS011;5304;48.604;2.096;2022-11-20T17:39:27;23.60;;;12.73;;
10511;SDS011;5304;48.604;2.096;2022-11-20T17:42:11;19.53;;;12.10;;
10511;SDS011;5304;48.604;2.096;2022-11-20T17:45:12;17.07;;;11.30;;
10511;SDS011;5304;48.604;2.096;2022-11-20T17:47:56;20.97;;;11.30;;
10511;SDS011;5304;48.604;2.096;2022-11-20T17:50:41;19.30;;;10.47;;
10511;SDS011;5304;48.604;2.096;2022-11-20T17:53:25;21.50;;;11.57;;
10511;SDS011;5304;48.604;2.096;2022-11-20T17:56:10;20.20;;;10.97;;
10511;SDS011;5304;48.604;2.096;2022-11-20T17:59:15;18.97;;;10.23;;
10511;SDS011;5304;48.604;2.096;2022-11-20T18:02:00;18.90;;;11.43;;
10511;SDS011;5304;48.604;2.096;2022-11-20T18:04:45;21.73;;;11.83;;
10511;SDS011;5304;48.604;2.096;2022-11-20T18:07:30;23.97;;;13.60;;
10511;SDS011;5304;48.604;2.096;2022-11-20T18:10:14;29.17;;;15.43;;
10511;SDS011;5304;48.604;2.096;2022-11-20T18:12:59;28.80;;;14.73;;
10511;SDS011;5304;48.604;2.096;2022-11-20T18:15:43;22.60;;;15.30;;
10511;SDS011;5304;48.604;2.096;2022-11-20T18:18:28;30.77;;;15.23;;
10511;SDS011;5304;48.604;2.096;2022-11-20T18:21:12;15.30;;;12.47;;
10511;SDS011;5304;48.604;2.096;2022-11-20T18:23:57;20.90;;;8.97;;
10511;SDS011;5304;48.604;2.096;2022-11-20T18:26:42;18.80;;;8.63;;
10511;SDS011;5304;48.604;2.096;2022-11-20T18:29:26;12.87;;;6.37;;
10511;SDS011;5304;48.604;2.096;2022-11-20T18:32:11;15.97;;;5.60;;